createdAt,value
2019-01-04T00:02:40.968Z,11.07
2019-01-04T00:07:59.843Z,11.10
2019-01-04T00:13:18.375Z,15.67
2019-01-04T00:18:37.000Z,16.27
2019-01-04T00:23:55.536Z,18.30
2019-01-04T00:29:14.076Z,17.70
2019-01-04T00:34:32.697Z,18.03
2019-01-04T00:39:51.242Z,18.27
2019-01-04T00:45:10.123Z,18.70
2019-01-04T00:50:28.927Z,22.73
2019-01-04T00:56:26.255Z,22.47
2019-01-04T01:02:24.701Z,25.30
2019-01-04T01:08:21.752Z,25.27
2019-01-04T01:14:20.205Z,25.00
2019-01-04T01:20:17.254Z,25.07
2019-01-04T01:26:14.305Z,24.60
2019-01-04T01:32:11.374Z,24.67
2019-01-04T01:38:09.768Z,22.70
2019-01-04T01:44:06.825Z,23.80
2019-01-04T01:50:03.897Z,24.87
2019-01-04T01:55:22.376Z,24.75
2019-01-04T02:11:42.001Z,28.03
2019-01-04T02:22:30.875Z,28.40
2019-01-04T02:27:49.348Z,30.30
2019-01-04T02:33:07.824Z,29.10
2019-01-04T02:43:56.954Z,25.95
2019-01-04T02:49:15.491Z,26.87
2019-01-04T02:54:33.973Z,25.73
2019-01-04T02:59:52.635Z,22.60
2019-01-04T03:05:11.108Z,21.57
2019-01-04T03:10:29.641Z,20.32
2019-01-04T03:15:48.171Z,21.23
2019-01-04T03:21:06.635Z,21.60
2019-01-04T03:26:25.092Z,20.33
2019-01-04T03:31:43.622Z,19.47
2019-01-04T03:37:02.118Z,18.87
2019-01-04T03:42:20.729Z,18.53
2019-01-04T03:47:39.214Z,17.27
2019-01-04T03:52:57.759Z,19.20
2019-01-04T03:58:16.218Z,18.93
2019-01-04T04:03:34.773Z,18.60
2019-01-04T04:08:53.314Z,19.80
2019-01-04T04:14:11.781Z,21.00
2019-01-04T04:19:30.254Z,24.10
2019-01-04T04:24:48.721Z,24.33
2019-01-04T04:30:26.544Z,25.93
2019-01-04T04:35:45.395Z,25.53
2019-01-04T04:41:03.941Z,25.40
2019-01-04T04:46:22.401Z,27.00
2019-01-04T04:57:11.328Z,26.00
2019-01-04T05:02:29.872Z,25.70
2019-01-04T05:07:48.427Z,25.40
2019-01-04T05:13:06.906Z,25.43
2019-01-04T05:18:25.459Z,25.90
2019-01-04T05:23:43.998Z,23.60
2019-01-04T05:29:02.694Z,25.63
2019-01-04T05:34:21.470Z,23.60
2019-01-04T05:39:39.939Z,24.13
2019-01-04T05:44:58.407Z,25.90
2019-01-04T05:50:16.944Z,24.13
2019-01-04T05:55:35.476Z,24.20
2019-01-04T06:00:54.196Z,25.83
2019-01-04T06:06:12.732Z,27.23
2019-01-04T06:11:31.414Z,27.30
2019-01-04T06:16:49.890Z,28.20
2019-01-04T06:22:08.727Z,24.83
2019-01-04T06:27:27.185Z,20.80
2019-01-04T06:32:45.737Z,23.10
2019-01-04T06:38:04.263Z,25.27
2019-01-04T06:43:22.746Z,24.20
2019-01-04T06:48:41.218Z,23.03
2019-01-04T06:53:59.692Z,25.83
2019-01-04T06:59:18.166Z,23.37
2019-01-04T07:04:36.674Z,22.63
2019-01-04T07:09:55.103Z,22.33
2019-01-04T07:15:13.653Z,19.73
2019-01-04T07:20:32.197Z,19.97
2019-01-04T07:25:50.740Z,21.90
2019-01-04T07:31:09.270Z,20.07
2019-01-04T07:36:27.743Z,22.13
2019-01-04T07:47:18.663Z,28.07
2019-01-04T07:52:37.276Z,30.90
2019-01-04T07:57:55.831Z,33.07
2019-01-04T08:03:14.364Z,30.10
2019-01-04T08:14:05.420Z,26.93
2019-01-04T08:19:23.894Z,23.93
2019-01-04T08:24:42.366Z,23.70
2019-01-04T08:30:00.840Z,23.73
2019-01-04T08:35:19.390Z,24.30
2019-01-04T08:40:37.864Z,26.07
2019-01-04T08:45:56.582Z,24.83
2019-01-04T08:51:15.129Z,25.70
2019-01-04T08:56:33.664Z,26.05
2019-01-04T09:01:52.138Z,27.70
2019-01-04T09:12:39.520Z,27.60
2019-01-04T09:17:58.060Z,28.33
2019-01-04T09:23:16.677Z,28.30
2019-01-04T09:28:35.383Z,27.10
2019-01-04T09:33:54.204Z,29.20
2019-01-04T09:39:12.744Z,29.00
2019-01-04T09:44:31.289Z,28.80
2019-01-04T09:49:49.835Z,30.93
2019-01-04T09:55:08.438Z,30.17
2019-01-04T10:00:26.943Z,31.70
2019-01-04T10:05:45.487Z,28.47
2019-01-04T10:11:04.109Z,25.03
2019-01-04T10:16:22.590Z,27.13
2019-01-04T10:21:41.090Z,29.03
2019-01-04T10:26:59.642Z,29.67
2019-01-04T10:32:18.466Z,29.90
2019-01-04T10:37:37.016Z,30.30
2019-01-04T10:42:55.658Z,29.57
2019-01-04T10:48:14.202Z,28.90
2019-01-04T10:53:32.679Z,29.13
2019-01-04T10:58:51.369Z,26.90
2019-01-04T11:04:10.223Z,25.23
2019-01-04T11:09:28.843Z,21.90
2019-01-04T11:14:47.450Z,17.57
2019-01-04T11:20:09.482Z,17.27
2019-01-04T11:25:55.175Z,17.80
2019-01-04T11:31:25.466Z,19.63
2019-01-04T11:37:03.231Z,22.87
2019-01-04T11:42:51.767Z,21.20
2019-01-04T11:48:13.548Z,20.57
2019-01-04T11:53:32.092Z,17.87
2019-01-04T11:58:51.051Z,17.87
2019-01-04T12:04:09.531Z,17.03
2019-01-04T12:09:28.091Z,15.33
2019-01-04T12:14:46.632Z,15.07
2019-01-04T12:20:07.470Z,19.37
2019-01-04T12:25:26.019Z,20.60
2019-01-04T12:30:44.556Z,20.73
2019-01-04T12:36:03.024Z,19.97
2019-01-04T12:41:21.506Z,22.40
2019-01-04T12:46:40.106Z,21.43
2019-01-04T12:51:58.602Z,20.70
2019-01-04T12:57:17.056Z,20.60
2019-01-04T13:02:36.014Z,18.33
2019-01-04T13:07:54.525Z,15.50
2019-01-04T13:13:13.215Z,13.83
2019-01-04T13:18:31.761Z,13.70
2019-01-04T13:23:50.294Z,13.43
2019-01-04T13:29:08.870Z,15.43
2019-01-04T13:34:27.409Z,17.13
2019-01-04T13:39:45.953Z,18.17
2019-01-04T13:45:05.666Z,16.60
2019-01-04T13:50:24.279Z,21.73
2019-01-04T13:55:43.168Z,20.60
2019-01-04T14:01:01.655Z,22.50
2019-01-04T14:06:20.125Z,23.90
2019-01-04T14:11:38.690Z,25.23
2019-01-04T14:16:57.384Z,25.40
2019-01-04T14:22:15.876Z,25.90
2019-01-04T14:27:35.345Z,26.37
2019-01-04T14:32:53.820Z,25.90
2019-01-04T14:38:12.292Z,26.97
2019-01-04T14:43:30.773Z,27.37
2019-01-04T14:48:49.323Z,26.40
2019-01-04T14:54:07.935Z,25.47
2019-01-04T14:59:26.427Z,24.57
2019-01-04T15:04:44.971Z,22.17
2019-01-04T15:10:03.983Z,21.13
2019-01-04T15:15:22.776Z,19.77
2019-01-04T15:20:41.336Z,20.77
2019-01-04T15:25:59.952Z,20.40
2019-01-04T15:31:18.496Z,21.80
2019-01-04T15:36:36.979Z,20.20
2019-01-04T15:41:55.525Z,22.53
2019-01-04T15:47:14.005Z,20.33
2019-01-04T15:52:32.544Z,21.30
2019-01-04T15:57:51.036Z,22.03
2019-01-04T16:03:09.498Z,23.23
2019-01-04T16:08:28.059Z,22.20
2019-01-04T16:13:46.593Z,23.77
2019-01-04T16:19:05.199Z,25.73
2019-01-04T16:24:23.744Z,27.20
2019-01-04T16:35:38.310Z,27.37
2019-01-04T16:40:56.916Z,28.63
2019-01-04T16:46:15.448Z,26.17
2019-01-04T16:51:34.045Z,28.37
2019-01-04T16:56:52.603Z,30.43
2019-01-04T17:02:11.651Z,30.80
2019-01-04T17:07:30.199Z,31.17
2019-01-04T17:12:48.797Z,33.43
2019-01-04T17:18:07.341Z,35.43
2019-01-04T17:23:25.906Z,34.53
2019-01-04T17:28:44.369Z,37.20
2019-01-04T17:34:02.995Z,39.23
2019-01-04T17:39:21.757Z,39.77
2019-01-04T17:44:40.314Z,38.17
2019-01-04T17:49:58.806Z,43.20
2019-01-04T17:55:17.596Z,41.45
2019-01-04T18:00:36.063Z,43.07
2019-01-04T18:05:54.545Z,42.63
2019-01-04T18:11:13.028Z,42.17
2019-01-04T18:16:31.612Z,42.77
2019-01-04T18:21:50.102Z,43.73
2019-01-04T18:27:08.660Z,45.05
2019-01-04T18:32:27.202Z,41.70
2019-01-04T18:37:45.992Z,43.17
2019-01-04T18:43:04.916Z,44.67
2019-01-04T18:48:23.477Z,45.67
2019-01-04T18:53:42.046Z,44.93
2019-01-04T18:59:00.844Z,47.77
2019-01-04T19:04:19.320Z,48.67
2019-01-04T19:09:37.805Z,51.20
2019-01-04T19:14:56.347Z,50.10
2019-01-04T19:20:14.896Z,45.73
2019-01-04T19:25:33.399Z,48.13
2019-01-04T19:30:51.932Z,47.83
2019-01-04T19:36:10.472Z,50.70
2019-01-04T19:41:28.945Z,51.13
2019-01-04T19:46:47.589Z,47.67
2019-01-04T19:52:06.434Z,46.60
2019-01-04T19:57:24.922Z,46.60
2019-01-04T20:02:43.715Z,50.43
2019-01-04T20:08:25.797Z,45.83
2019-01-04T20:14:26.524Z,41.57
2019-01-04T20:19:53.596Z,38.20
2019-01-04T20:25:22.769Z,33.50
2019-01-04T20:30:55.122Z,36.27
2019-01-04T20:36:31.525Z,34.83
2019-01-04T20:42:07.532Z,36.60
2019-01-04T20:47:43.064Z,36.23
2019-01-04T20:53:18.595Z,37.70
2019-01-04T20:58:55.263Z,38.17
2019-01-04T21:04:15.467Z,34.57
2019-01-04T21:09:35.930Z,33.27
2019-01-04T21:14:58.776Z,35.27
2019-01-04T21:20:21.692Z,34.67
2019-01-04T21:25:41.797Z,29.97
2019-01-04T21:31:17.883Z,29.87
2019-01-04T21:36:54.192Z,30.40
2019-01-04T21:42:30.481Z,29.60
2019-01-04T21:47:50.702Z,28.02
2019-01-04T21:53:27.092Z,27.07
2019-01-04T21:58:47.270Z,26.07
2019-01-04T22:04:13.181Z,27.83
2019-01-04T22:09:45.183Z,29.87
2019-01-04T22:15:17.706Z,29.10
2019-01-04T22:20:49.936Z,29.63
2019-01-04T22:26:26.709Z,33.63
2019-01-04T22:32:03.540Z,33.53
2019-01-04T22:37:38.579Z,31.67
2019-01-04T22:43:01.594Z,30.77
2019-01-04T22:48:21.757Z,30.97
2019-01-04T22:53:50.973Z,31.53
2019-01-04T22:59:16.659Z,31.93
2019-01-04T23:04:54.553Z,31.33
2019-01-04T23:10:14.909Z,32.55
2019-01-04T23:15:35.016Z,31.10
2019-01-04T23:20:55.210Z,35.70
2019-01-04T23:26:25.240Z,36.43
2019-01-04T23:32:03.787Z,36.40
2019-01-04T23:37:26.902Z,39.30
2019-01-04T23:43:02.326Z,38.17
2019-01-04T23:48:38.689Z,39.33
2019-01-04T23:54:05.248Z,39.13
2019-01-04T23:59:33.923Z,38.78
